Folegandros, Greece
Current Conditions -  °F | °C
As of 5:50 AM on Monday 24 Nov 2014 (Local Time) from LGSR Reporting Station
NA  
Wind Chill: 57°   Ceiling: NA
Heat Index: 57°   Visibility: NA
Dew Point: 45°   Wind: 21mph
Humidity: 63%   Direction: 350°N
Pressure: 30.09"   Gusts: NA
Location:  36.65°N, 24.87°E
Report Text: LGSR 240250Z AUTO 35018KT //// // ////// 14/07 Q1019 RE//
Loading
Personal Weather Stations






























Interactive Weather Map New forecast layout! Learn more

10-Day Weather Forecast

Advertisements
Track Severe Weather on mobile